sensor_id;sensor_type;location;lat;lon;timestamp;pressure;altitude;pressure_sealevel;temperature;humidity
79269;BME280;68714;48.586;7.772;2023-05-10T00:00:32;99353.56;;;14.86;71.32
79269;BME280;68714;48.586;7.772;2023-05-10T00:02:58;99361.63;;;14.85;71.20
79269;BME280;68714;48.586;7.772;2023-05-10T00:05:23;99363.75;;;14.79;71.37
79269;BME280;68714;48.586;7.772;2023-05-10T00:07:49;99363.28;;;14.73;71.35
79269;BME280;68714;48.586;7.772;2023-05-10T00:10:14;99364.59;;;14.67;71.47
79269;BME280;68714;48.586;7.772;2023-05-10T00:12:39;99366.47;;;14.65;71.51
79269;BME280;68714;48.586;7.772;2023-05-10T00:15:05;99370.09;;;14.64;71.46
79269;BME280;68714;48.586;7.772;2023-05-10T00:17:31;99378.81;;;14.66;71.33
79269;BME280;68714;48.586;7.772;2023-05-10T00:19:56;99371.66;;;14.67;71.29
79269;BME280;68714;48.586;7.772;2023-05-10T00:22:22;99374.31;;;14.67;71.12
79269;BME280;68714;48.586;7.772;2023-05-10T00:24:48;99379.53;;;14.68;71.17
79269;BME280;68714;48.586;7.772;2023-05-10T00:27:13;99383.06;;;14.69;71.11
79269;BME280;68714;48.586;7.772;2023-05-10T00:29:38;99375.84;;;14.71;71.03
79269;BME280;68714;48.586;7.772;2023-05-10T00:32:04;99374.03;;;14.71;70.90
79269;BME280;68714;48.586;7.772;2023-05-10T00:34:29;99368.63;;;14.73;70.64
79269;BME280;68714;48.586;7.772;2023-05-10T00:36:55;99359.59;;;14.75;70.60
79269;BME280;68714;48.586;7.772;2023-05-10T00:39:21;99361.22;;;14.78;70.40
79269;BME280;68714;48.586;7.772;2023-05-10T00:41:46;99360.13;;;14.80;70.35
79269;BME280;68714;48.586;7.772;2023-05-10T00:44:12;99365.34;;;14.82;70.27
79269;BME280;68714;48.586;7.772;2023-05-10T00:46:37;99360.03;;;14.82;70.10
79269;BME280;68714;48.586;7.772;2023-05-10T00:49:02;99361.75;;;14.83;69.92
79269;BME280;68714;48.586;7.772;2023-05-10T00:51:29;99357.28;;;14.84;69.78
79269;BME280;68714;48.586;7.772;2023-05-10T00:53:56;99356.31;;;14.85;69.59
79269;BME280;68714;48.586;7.772;2023-05-10T00:56:21;99351.97;;;14.84;69.56
79269;BME280;68714;48.586;7.772;2023-05-10T00:58:48;99355.28;;;14.87;69.59
79269;BME280;68714;48.586;7.772;2023-05-10T01:01:14;99353.25;;;14.91;69.70
79269;BME280;68714;48.586;7.772;2023-05-10T01:03:40;99353.16;;;14.92;69.46
79269;BME280;68714;48.586;7.772;2023-05-10T01:06:05;99355.72;;;14.94;69.53
79269;BME280;68714;48.586;7.772;2023-05-10T01:08:31;99363.28;;;15.00;69.36
79269;BME280;68714;48.586;7.772;2023-05-10T01:10:57;99357.75;;;15.03;69.34
79269;BME280;68714;48.586;7.772;2023-05-10T01:13:42;99348.06;;;15.02;69.33
79269;BME280;68714;48.586;7.772;2023-05-10T01:16:08;99354.97;;;15.05;69.15
79269;BME280;68714;48.586;7.772;2023-05-10T01:18:36;99354.78;;;15.08;69.26
79269;BME280;68714;48.586;7.772;2023-05-10T01:32:16;99351.81;;;15.12;69.20
79269;BME280;68714;48.586;7.772;2023-05-10T01:35:10;99358.63;;;15.16;69.08
79269;BME280;68714;48.586;7.772;2023-05-10T01:42:47;99356.81;;;15.17;69.23
79269;BME280;68714;48.586;7.772;2023-05-10T01:46:09;99362.22;;;15.15;69.25
79269;BME280;68714;48.586;7.772;2023-05-10T01:48:10;99359.16;;;15.09;69.38
79269;BME280;68714;48.586;7.772;2023-05-10T01:50:39;99363.91;;;15.04;69.31
79269;BME280;68714;48.586;7.772;2023-05-10T01:53:10;99364.09;;;14.88;69.10
79269;BME280;68714;48.586;7.772;2023-05-10T01:55:43;99366.72;;;14.75;69.36
79269;BME280;68714;48.586;7.772;2023-05-10T01:58:14;99370.00;;;14.66;69.30
79269;BME280;68714;48.586;7.772;2023-05-10T02:00:43;99371.13;;;14.61;69.37
79269;BME280;68714;48.586;7.772;2023-05-10T02:03:10;99373.03;;;14.59;69.71
79269;BME280;68714;48.586;7.772;2023-05-10T02:05:36;99371.41;;;14.57;69.76
79269;BME280;68714;48.586;7.772;2023-05-10T02:08:05;99374.25;;;14.54;69.72
79269;BME280;68714;48.586;7.772;2023-05-10T02:10:33;99384.13;;;14.52;69.66
79269;BME280;68714;48.586;7.772;2023-05-10T02:13:00;99386.69;;;14.53;69.77
79269;BME280;68714;48.586;7.772;2023-05-10T02:15:27;99390.09;;;14.55;69.61
79269;BME280;68714;48.586;7.772;2023-05-10T02:17:55;99397.22;;;14.55;69.57
79269;BME280;68714;48.586;7.772;2023-05-10T02:20:22;99392.75;;;14.55;69.71
79269;BME280;68714;48.586;7.772;2023-05-10T02:22:50;99389.06;;;14.58;69.72
79269;BME280;68714;48.586;7.772;2023-05-10T02:25:17;99390.47;;;14.63;69.72
79269;BME280;68714;48.586;7.772;2023-05-10T02:27:44;99397.94;;;14.71;69.82
79269;BME280;68714;48.586;7.772;2023-05-10T02:30:11;99394.97;;;14.76;69.67
79269;BME280;68714;48.586;7.772;2023-05-10T02:32:38;99405.50;;;14.77;69.46
79269;BME280;68714;48.586;7.772;2023-05-10T02:35:05;99397.44;;;14.79;69.49
79269;BME280;68714;48.586;7.772;2023-05-10T02:37:31;99397.63;;;14.76;69.57
79269;BME280;68714;48.586;7.772;2023-05-10T02:39:58;99395.47;;;14.68;69.55
79269;BME280;68714;48.586;7.772;2023-05-10T02:42:26;99384.94;;;14.67;69.32
79269;BME280;68714;48.586;7.772;2023-05-10T02:44:59;99383.63;;;14.59;69.50
79269;BME280;68714;48.586;7.772;2023-05-10T02:47:25;99388.28;;;14.56;69.59
79269;BME280;68714;48.586;7.772;2023-05-10T02:49:50;99395.50;;;14.54;69.64
79269;BME280;68714;48.586;7.772;2023-05-10T02:52:21;99403.56;;;14.52;69.78
79269;BME280;68714;48.586;7.772;2023-05-10T02:54:50;99397.22;;;14.55;69.72
79269;BME280;68714;48.586;7.772;2023-05-10T02:57:22;99388.28;;;14.56;69.88
79269;BME280;68714;48.586;7.772;2023-05-10T02:59:50;99395.03;;;14.61;69.53
79269;BME280;68714;48.586;7.772;2023-05-10T03:02:15;99395.88;;;14.62;69.44
79269;BME280;68714;48.586;7.772;2023-05-10T03:04:41;99398.44;;;14.63;69.45
79269;BME280;68714;48.586;7.772;2023-05-10T03:07:07;99391.25;;;14.66;69.48
79269;BME280;68714;48.586;7.772;2023-05-10T03:09:33;99391.69;;;14.72;69.47
79269;BME280;68714;48.586;7.772;2023-05-10T03:12:14;99397.81;;;14.73;69.48
79269;BME280;68714;48.586;7.772;2023-05-10T03:19:58;99402.75;;;14.79;69.31
79269;BME280;68714;48.586;7.772;2023-05-10T03:22:38;99398.59;;;14.75;69.23
79269;BME280;68714;48.586;7.772;2023-05-10T03:25:07;99403.03;;;14.74;69.25
79269;BME280;68714;48.586;7.772;2023-05-10T03:27:35;99409.31;;;14.73;69.44
79269;BME280;68714;48.586;7.772;2023-05-10T03:30:02;99407.50;;;14.74;69.36
79269;BME280;68714;48.586;7.772;2023-05-10T03:32:28;99412.81;;;14.74;69.34
79269;BME280;68714;48.586;7.772;2023-05-10T03:34:55;99405.81;;;14.73;69.30
79269;BME280;68714;48.586;7.772;2023-05-10T03:37:20;99405.16;;;14.69;69.17
79269;BME280;68714;48.586;7.772;2023-05-10T03:39:46;99404.72;;;14.62;69.24
79269;BME280;68714;48.586;7.772;2023-05-10T03:42:11;99408.47;;;14.58;69.38
79269;BME280;68714;48.586;7.772;2023-05-10T03:44:40;99410.41;;;14.56;69.50
79269;BME280;68714;48.586;7.772;2023-05-10T03:47:05;99410.59;;;14.53;69.61
79269;BME280;68714;48.586;7.772;2023-05-10T03:49:31;99408.69;;;14.55;69.47
79269;BME280;68714;48.586;7.772;2023-05-10T03:51:56;99415.72;;;14.56;69.56
79269;BME280;68714;48.586;7.772;2023-05-10T03:54:21;99414.09;;;14.54;69.44
79269;BME280;68714;48.586;7.772;2023-05-10T03:56:47;99416.00;;;14.52;69.30
79269;BME280;68714;48.586;7.772;2023-05-10T03:59:13;99415.44;;;14.47;69.39
79269;BME280;68714;48.586;7.772;2023-05-10T04:01:38;99419.41;;;14.39;69.30
79269;BME280;68714;48.586;7.772;2023-05-10T04:04:04;99419.91;;;14.32;69.50
79269;BME280;68714;48.586;7.772;2023-05-10T04:06:29;99425.59;;;14.25;69.31
79269;BME280;68714;48.586;7.772;2023-05-10T04:08:55;99428.75;;;14.18;69.36
79269;BME280;68714;48.586;7.772;2023-05-10T04:11:21;99423.72;;;14.13;69.62
79269;BME280;68714;48.586;7.772;2023-05-10T04:13:47;99434.63;;;14.08;69.67
79269;BME280;68714;48.586;7.772;2023-05-10T04:16:12;99432.06;;;14.07;69.73
79269;BME280;68714;48.586;7.772;2023-05-10T04:18:38;99436.44;;;14.08;69.88
79269;BME280;68714;48.586;7.772;2023-05-10T04:21:04;99437.09;;;14.12;69.98
79269;BME280;68714;48.586;7.772;2023-05-10T04:23:35;99437.09;;;14.12;69.96
79269;BME280;68714;48.586;7.772;2023-05-10T04:26:01;99446.03;;;14.11;69.89
79269;BME280;68714;48.586;7.772;2023-05-10T04:28:27;99453.19;;;14.08;69.72
79269;BME280;68714;48.586;7.772;2023-05-10T04:30:52;99448.09;;;14.05;69.84
79269;BME280;68714;48.586;7.772;2023-05-10T04:33:18;99446.41;;;14.04;70.02
79269;BME280;68714;48.586;7.772;2023-05-10T04:35:43;99446.69;;;14.00;69.99
79269;BME280;68714;48.586;7.772;2023-05-10T04:38:10;99446.00;;;13.96;70.26
79269;BME280;68714;48.586;7.772;2023-05-10T04:40:35;99455.97;;;13.93;70.38
79269;BME280;68714;48.586;7.772;2023-05-10T04:43:01;99457.97;;;13.89;70.83
79269;BME280;68714;48.586;7.772;2023-05-10T04:45:26;99456.44;;;13.85;70.56
79269;BME280;68714;48.586;7.772;2023-05-10T04:47:51;99455.84;;;13.80;70.60
79269;BME280;68714;48.586;7.772;2023-05-10T04:50:17;99448.06;;;13.77;70.77
79269;BME280;68714;48.586;7.772;2023-05-10T04:52:42;99445.59;;;13.73;70.37
79269;BME280;68714;48.586;7.772;2023-05-10T04:55:08;99438.63;;;13.72;70.69
79269;BME280;68714;48.586;7.772;2023-05-10T04:57:35;99442.19;;;13.71;70.57
79269;BME280;68714;48.586;7.772;2023-05-10T05:00:00;99441.53;;;13.68;70.59
79269;BME280;68714;48.586;7.772;2023-05-10T05:02:25;99446.94;;;13.66;70.76
79269;BME280;68714;48.586;7.772;2023-05-10T05:04:51;99445.22;;;13.65;70.67
79269;BME280;68714;48.586;7.772;2023-05-10T05:07:16;99440.09;;;13.62;70.52
79269;BME280;68714;48.586;7.772;2023-05-10T05:09:42;99441.72;;;13.65;70.71
79269;BME280;68714;48.586;7.772;2023-05-10T05:12:07;99442.38;;;13.68;70.63
79269;BME280;68714;48.586;7.772;2023-05-10T05:14:32;99453.00;;;13.68;70.39
79269;BME280;68714;48.586;7.772;2023-05-10T05:16:58;99459.31;;;13.66;70.39
79269;BME280;68714;48.586;7.772;2023-05-10T05:19:23;99459.50;;;13.63;70.37
79269;BME280;68714;48.586;7.772;2023-05-10T05:21:49;99464.81;;;13.63;70.42
79269;BME280;68714;48.586;7.772;2023-05-10T05:24:14;99465.69;;;13.63;70.36
79269;BME280;68714;48.586;7.772;2023-05-10T05:26:40;99469.19;;;13.64;70.29
79269;BME280;68714;48.586;7.772;2023-05-10T05:29:05;99468.44;;;13.62;70.46
79269;BME280;68714;48.586;7.772;2023-05-10T05:31:31;99463.22;;;13.60;70.43
79269;BME280;68714;48.586;7.772;2023-05-10T05:33:56;99476.28;;;13.63;70.51
79269;BME280;68714;48.586;7.772;2023-05-10T05:36:22;99478.66;;;13.68;70.55
79269;BME280;68714;48.586;7.772;2023-05-10T05:38:47;99477.53;;;13.72;70.54
79269;BME280;68714;48.586;7.772;2023-05-10T05:41:13;99478.50;;;13.71;70.49
79269;BME280;68714;48.586;7.772;2023-05-10T05:43:38;99491.56;;;13.74;70.60
79269;BME280;68714;48.586;7.772;2023-05-10T05:46:04;99492.50;;;13.73;70.54
79269;BME280;68714;48.586;7.772;2023-05-10T05:48:30;99492.41;;;13.74;70.76
79269;BME280;68714;48.586;7.772;2023-05-10T05:50:55;99493.25;;;13.75;70.55
79269;BME280;68714;48.586;7.772;2023-05-10T05:53:24;99495.63;;;13.80;70.54
79269;BME280;68714;48.586;7.772;2023-05-10T05:55:57;99493.75;;;13.82;70.64
79269;BME280;68714;48.586;7.772;2023-05-10T05:58:23;99502.56;;;13.82;70.69
79269;BME280;68714;48.586;7.772;2023-05-10T06:00:49;99490.22;;;13.81;70.68
79269;BME280;68714;48.586;7.772;2023-05-10T06:03:15;99497.94;;;13.86;70.69
79269;BME280;68714;48.586;7.772;2023-05-10T06:05:41;99495.00;;;13.90;71.01
79269;BME280;68714;48.586;7.772;2023-05-10T06:08:06;99498.78;;;14.01;70.91
79269;BME280;68714;48.586;7.772;2023-05-10T06:10:32;99495.66;;;14.08;70.75
79269;BME280;68714;48.586;7.772;2023-05-10T06:12:57;99501.47;;;14.15;70.75
79269;BME280;68714;48.586;7.772;2023-05-10T06:15:22;99507.50;;;14.17;70.67
79269;BME280;68714;48.586;7.772;2023-05-10T06:17:48;99513.66;;;14.18;70.69
79269;BME280;68714;48.586;7.772;2023-05-10T06:20:15;99512.53;;;14.22;70.67
79269;BME280;68714;48.586;7.772;2023-05-10T06:22:40;99514.25;;;14.23;70.66
79269;BME280;68714;48.586;7.772;2023-05-10T06:25:06;99508.94;;;14.23;70.85
79269;BME280;68714;48.586;7.772;2023-05-10T06:27:32;99515.75;;;14.27;70.83
79269;BME280;68714;48.586;7.772;2023-05-10T06:29:57;99520.59;;;14.35;70.53
79269;BME280;68714;48.586;7.772;2023-05-10T06:32:23;99516.16;;;14.35;70.48
79269;BME280;68714;48.586;7.772;2023-05-10T06:34:48;99518.81;;;14.35;70.40
79269;BME280;68714;48.586;7.772;2023-05-10T06:37:14;99527.72;;;14.34;70.33
79269;BME280;68714;48.586;7.772;2023-05-10T06:39:39;99526.00;;;14.33;70.10
79269;BME280;68714;48.586;7.772;2023-05-10T06:42:04;99532.16;;;14.34;70.28
79269;BME280;68714;48.586;7.772;2023-05-10T06:44:30;99530.34;;;14.34;70.38
79269;BME280;68714;48.586;7.772;2023-05-10T06:46:56;99525.81;;;14.36;70.28
79269;BME280;68714;48.586;7.772;2023-05-10T06:49:21;99529.03;;;14.41;70.52
79269;BME280;68714;48.586;7.772;2023-05-10T06:51:47;99535.69;;;14.49;70.23
79269;BME280;68714;48.586;7.772;2023-05-10T06:54:13;99538.25;;;14.50;69.97
79269;BME280;68714;48.586;7.772;2023-05-10T06:56:39;99542.88;;;14.47;69.68
79269;BME280;68714;48.586;7.772;2023-05-10T06:59:04;99538.69;;;14.42;69.75
79269;BME280;68714;48.586;7.772;2023-05-10T07:01:29;99543.16;;;14.42;69.57
79269;BME280;68714;48.586;7.772;2023-05-10T07:03:55;99546.66;;;14.42;69.55
79269;BME280;68714;48.586;7.772;2023-05-10T07:06:21;99550.19;;;14.43;69.53
79269;BME280;68714;48.586;7.772;2023-05-10T07:08:46;99548.97;;;14.49;69.57
79269;BME280;68714;48.586;7.772;2023-05-10T07:11:11;99547.69;;;14.54;69.53
79269;BME280;68714;48.586;7.772;2023-05-10T07:13:37;99548.97;;;14.63;69.61
79269;BME280;68714;48.586;7.772;2023-05-10T07:16:04;99555.41;;;14.73;69.26
79269;BME280;68714;48.586;7.772;2023-05-10T07:18:33;99546.19;;;14.79;68.98
79269;BME280;68714;48.586;7.772;2023-05-10T07:20:59;99550.47;;;14.82;69.05
79269;BME280;68714;48.586;7.772;2023-05-10T07:23:24;99554.44;;;14.89;69.04
79269;BME280;68714;48.586;7.772;2023-05-10T07:25:51;99556.41;;;15.00;68.86
79269;BME280;68714;48.586;7.772;2023-05-10T07:28:17;99555.91;;;15.07;68.55
79269;BME280;68714;48.586;7.772;2023-05-10T07:30:43;99557.97;;;15.16;68.56
79269;BME280;68714;48.586;7.772;2023-05-10T07:33:10;99562.91;;;15.23;68.33
79269;BME280;68714;48.586;7.772;2023-05-10T07:35:36;99556.34;;;15.28;68.18
79269;BME280;68714;48.586;7.772;2023-05-10T07:38:02;99564.09;;;15.31;67.53
79269;BME280;68714;48.586;7.772;2023-05-10T07:40:28;99562.50;;;15.29;67.25
79269;BME280;68714;48.586;7.772;2023-05-10T07:42:54;99568.44;;;15.32;67.51
79269;BME280;68714;48.586;7.772;2023-05-10T07:45:19;99569.03;;;15.38;67.71
79269;BME280;68714;48.586;7.772;2023-05-10T07:47:45;99562.44;;;15.43;67.26
79269;BME280;68714;48.586;7.772;2023-05-10T07:50:10;99565.97;;;15.44;66.91
79269;BME280;68714;48.586;7.772;2023-05-10T07:52:36;99564.25;;;15.43;66.29
79269;BME280;68714;48.586;7.772;2023-05-10T07:55:01;99563.59;;;15.39;65.95
79269;BME280;68714;48.586;7.772;2023-05-10T07:57:27;99578.88;;;15.36;65.56
79269;BME280;68714;48.586;7.772;2023-05-10T07:59:52;99566.78;;;15.31;65.80
79269;BME280;68714;48.586;7.772;2023-05-10T08:02:18;99571.22;;;15.31;65.60
79269;BME280;68714;48.586;7.772;2023-05-10T08:04:43;99571.31;;;15.29;65.67
79269;BME280;68714;48.586;7.772;2023-05-10T08:07:08;99566.28;;;15.25;65.53
79269;BME280;68714;48.586;7.772;2023-05-10T08:09:34;99571.25;;;15.16;65.25
79269;BME280;68714;48.586;7.772;2023-05-10T08:11:59;99581.41;;;15.10;65.28
79269;BME280;68714;48.586;7.772;2023-05-10T08:14:26;99574.81;;;15.03;65.24
79269;BME280;68714;48.586;7.772;2023-05-10T08:16:52;99595.13;;;14.89;65.06
79269;BME280;68714;48.586;7.772;2023-05-10T08:19:17;99590.34;;;14.67;65.28
79269;BME280;68714;48.586;7.772;2023-05-10T08:21:45;99600.06;;;14.52;65.81
79269;BME280;68714;48.586;7.772;2023-05-10T08:24:10;99581.25;;;14.41;66.14
79269;BME280;68714;48.586;7.772;2023-05-10T08:26:36;99577.66;;;14.42;66.41
79269;BME280;68714;48.586;7.772;2023-05-10T08:29:01;99582.78;;;14.45;66.41
79269;BME280;68714;48.586;7.772;2023-05-10T08:31:28;99584.59;;;14.44;66.34
79269;BME280;68714;48.586;7.772;2023-05-10T08:33:53;99581.75;;;14.48;66.50
79269;BME280;68714;48.586;7.772;2023-05-10T08:36:19;99587.63;;;14.53;66.25
79269;BME280;68714;48.586;7.772;2023-05-10T08:38:53;99583.09;;;14.55;65.92
79269;BME280;68714;48.586;7.772;2023-05-10T08:41:21;99585.16;;;14.50;65.70
79269;BME280;68714;48.586;7.772;2023-05-10T08:43:47;99589.75;;;14.62;66.26
79269;BME280;68714;48.586;7.772;2023-05-10T08:46:16;99592.22;;;14.79;66.35
79269;BME280;68714;48.586;7.772;2023-05-10T08:48:44;99595.41;;;14.99;66.04
79269;BME280;68714;48.586;7.772;2023-05-10T08:51:13;99595.84;;;15.20;65.54
79269;BME280;68714;48.586;7.772;2023-05-10T08:53:39;99591.13;;;15.38;65.51
79269;BME280;68714;48.586;7.772;2023-05-10T08:56:04;99593.69;;;15.67;65.19
79269;BME280;68714;48.586;7.772;2023-05-10T08:58:30;99597.72;;;15.87;64.79
79269;BME280;68714;48.586;7.772;2023-05-10T09:00:56;99612.53;;;16.04;63.73
79269;BME280;68714;48.586;7.772;2023-05-10T09:03:22;99606.38;;;16.03;62.57
79269;BME280;68714;48.586;7.772;2023-05-10T09:05:49;99598.28;;;16.05;62.12
79269;BME280;68714;48.586;7.772;2023-05-10T09:08:15;99600.00;;;16.19;61.81
79269;BME280;68714;48.586;7.772;2023-05-10T09:10:43;99601.06;;;16.16;59.94
79269;BME280;68714;48.586;7.772;2023-05-10T09:13:10;99612.78;;;16.27;58.58
79269;BME280;68714;48.586;7.772;2023-05-10T09:15:36;99600.72;;;16.34;59.11
79269;BME280;68714;48.586;7.772;2023-05-10T09:18:01;99604.81;;;16.52;59.32
79269;BME280;68714;48.586;7.772;2023-05-10T09:20:27;99574.41;;;16.55;56.86
79269;BME280;68714;48.586;7.772;2023-05-10T09:22:53;99598.50;;;16.53;56.60
79269;BME280;68714;48.586;7.772;2023-05-10T09:25:19;99579.34;;;16.48;56.05
79269;BME280;68714;48.586;7.772;2023-05-10T09:27:46;99598.09;;;16.47;55.88
79269;BME280;68714;48.586;7.772;2023-05-10T09:30:25;99596.16;;;16.62;52.60
79269;BME280;68714;48.586;7.772;2023-05-10T09:32:51;99593.66;;;16.84;55.38
79269;BME280;68714;48.586;7.772;2023-05-10T09:35:21;99609.03;;;16.93;54.67
79269;BME280;68714;48.586;7.772;2023-05-10T09:37:50;99610.44;;;16.86;54.84
79269;BME280;68714;48.586;7.772;2023-05-10T09:40:20;99600.72;;;16.85;51.91
79269;BME280;68714;48.586;7.772;2023-05-10T09:43:00;99610.31;;;16.75;49.06
79269;BME280;68714;48.586;7.772;2023-05-10T09:45:28;99602.75;;;16.69;53.93
79269;BME280;68714;48.586;7.772;2023-05-10T09:47:54;99590.91;;;16.73;53.48
79269;BME280;68714;48.586;7.772;2023-05-10T09:50:20;99603.91;;;16.90;53.76
79269;BME280;68714;48.586;7.772;2023-05-10T09:52:52;99595.97;;;17.15;50.60
79269;BME280;68714;48.586;7.772;2023-05-10T09:55:21;99603.38;;;17.35;52.47
79269;BME280;68714;48.586;7.772;2023-05-10T09:57:47;99615.38;;;17.54;53.35
79269;BME280;68714;48.586;7.772;2023-05-10T10:00:19;99605.00;;;17.73;47.49
79269;BME280;68714;48.586;7.772;2023-05-10T10:02:53;99616.09;;;17.80;51.24
79269;BME280;68714;48.586;7.772;2023-05-10T10:05:19;99620.34;;;17.82;51.89
79269;BME280;68714;48.586;7.772;2023-05-10T10:07:45;99624.72;;;17.83;52.08
79269;BME280;68714;48.586;7.772;2023-05-10T10:10:10;99620.41;;;17.70;51.13
79269;BME280;68714;48.586;7.772;2023-05-10T10:12:39;99642.16;;;17.52;49.82
79269;BME280;68714;48.586;7.772;2023-05-10T10:15:07;99632.06;;;17.44;51.31
79269;BME280;68714;48.586;7.772;2023-05-10T10:17:36;99626.75;;;17.56;51.12
79269;BME280;68714;48.586;7.772;2023-05-10T10:20:03;99621.94;;;17.61;51.11
79269;BME280;68714;48.586;7.772;2023-05-10T10:22:28;99620.25;;;17.60;50.75
79269;BME280;68714;48.586;7.772;2023-05-10T10:24:54;99627.22;;;17.50;50.35
79269;BME280;68714;48.586;7.772;2023-05-10T10:27:24;99620.00;;;17.39;49.77
79269;BME280;68714;48.586;7.772;2023-05-10T10:30:04;99628.91;;;17.26;46.71
79269;BME280;68714;48.586;7.772;2023-05-10T10:32:48;99624.13;;;17.19;49.17
79269;BME280;68714;48.586;7.772;2023-05-10T10:35:20;99631.19;;;17.20;48.50
79269;BME280;68714;48.586;7.772;2023-05-10T10:37:47;99634.41;;;17.12;48.36
79269;BME280;68714;48.586;7.772;2023-05-10T10:40:29;99618.81;;;17.06;45.26
79269;BME280;68714;48.586;7.772;2023-05-10T10:42:55;99634.22;;;16.89;43.74
79269;BME280;68714;48.586;7.772;2023-05-10T10:45:21;99626.13;;;16.91;48.46
79269;BME280;68714;48.586;7.772;2023-05-10T10:47:48;99639.81;;;17.10;48.40
79269;BME280;68714;48.586;7.772;2023-05-10T10:50:13;99655.75;;;17.36;47.82
79269;BME280;68714;48.586;7.772;2023-05-10T10:52:42;99624.22;;;17.54;47.44
79269;BME280;68714;48.586;7.772;2023-05-10T10:55:13;99617.34;;;17.63;47.38
79269;BME280;68714;48.586;7.772;2023-05-10T10:57:50;99622.63;;;17.76;44.07
79269;BME280;68714;48.586;7.772;2023-05-10T11:00:29;99622.97;;;17.95;43.96
79269;BME280;68714;48.586;7.772;2023-05-10T11:02:59;99621.78;;;17.99;45.63
79269;BME280;68714;48.586;7.772;2023-05-10T11:05:40;99623.81;;;17.96;45.82
79269;BME280;68714;48.586;7.772;2023-05-10T11:08:09;99618.88;;;18.03;46.11
79269;BME280;68714;48.586;7.772;2023-05-10T11:10:35;99612.72;;;18.25;46.46
79269;BME280;68714;48.586;7.772;2023-05-10T11:13:05;99614.44;;;18.37;45.61
79269;BME280;68714;48.586;7.772;2023-05-10T11:15:32;99599.53;;;18.46;45.71
79269;BME280;68714;48.586;7.772;2023-05-10T11:17:58;99603.78;;;18.60;45.83
79269;BME280;68714;48.586;7.772;2023-05-10T11:20:27;99601.88;;;18.96;43.75
79269;BME280;68714;48.586;7.772;2023-05-10T11:23:32;99603.22;;;19.13;41.79
79269;BME280;68714;48.586;7.772;2023-05-10T11:26:04;99597.53;;;19.38;45.26
79269;BME280;68714;48.586;7.772;2023-05-10T11:28:34;99602.94;;;19.59;44.95
79269;BME280;68714;48.586;7.772;2023-05-10T11:31:00;99607.84;;;19.54;44.47
79269;BME280;68714;48.586;7.772;2023-05-10T11:36:37;99607.16;;;19.41;40.97
79269;BME280;68714;48.586;7.772;2023-05-10T11:39:03;99604.28;;;19.65;45.02
79269;BME280;68714;48.586;7.772;2023-05-10T11:41:31;99602.53;;;19.75;44.99
79269;BME280;68714;48.586;7.772;2023-05-10T11:43:58;99597.19;;;19.75;44.76
79269;BME280;68714;48.586;7.772;2023-05-10T11:46:25;99602.19;;;19.80;44.63
79269;BME280;68714;48.586;7.772;2023-05-10T11:48:59;99590.25;;;19.73;44.21
79269;BME280;68714;48.586;7.772;2023-05-10T11:51:26;99587.47;;;19.63;44.44
79269;BME280;68714;48.586;7.772;2023-05-10T11:53:53;99593.59;;;19.54;44.69
79269;BME280;68714;48.586;7.772;2023-05-10T11:56:19;99593.63;;;19.42;43.98
79269;BME280;68714;48.586;7.772;2023-05-10T11:58:52;99602.59;;;19.09;43.11
79269;BME280;68714;48.586;7.772;2023-05-10T12:01:18;99608.66;;;18.77;43.82
79269;BME280;68714;48.586;7.772;2023-05-10T12:03:46;99591.66;;;18.44;44.64
79269;BME280;68714;48.586;7.772;2023-05-10T12:06:12;99605.44;;;18.27;44.29
79269;BME280;68714;48.586;7.772;2023-05-10T12:08:44;99601.03;;;18.14;43.02
79269;BME280;68714;48.586;7.772;2023-05-10T12:11:13;99604.81;;;18.12;45.30
79269;BME280;68714;48.586;7.772;2023-05-10T12:13:42;99613.31;;;18.17;45.33
79269;BME280;68714;48.586;7.772;2023-05-10T12:16:17;99609.06;;;18.14;45.31
79269;BME280;68714;48.586;7.772;2023-05-10T12:18:43;99618.88;;;18.03;45.87
79269;BME280;68714;48.586;7.772;2023-05-10T12:21:12;99613.13;;;17.96;46.38
79269;BME280;68714;48.586;7.772;2023-05-10T12:23:39;99612.19;;;17.97;46.60
79269;BME280;68714;48.586;7.772;2023-05-10T12:26:05;99615.97;;;18.06;46.63
79269;BME280;68714;48.586;7.772;2023-05-10T12:28:32;99617.31;;;18.11;46.09
79269;BME280;68714;48.586;7.772;2023-05-10T12:30:59;99614.63;;;18.11;46.21
79269;BME280;68714;48.586;7.772;2023-05-10T12:33:25;99624.47;;;18.11;46.17
79269;BME280;68714;48.586;7.772;2023-05-10T12:35:54;99630.50;;;18.02;46.62
79269;BME280;68714;48.586;7.772;2023-05-10T13:06:48;99579.69;;;19.60;45.95
79269;BME280;68714;48.586;7.772;2023-05-10T13:09:13;99580.69;;;19.91;45.76
79269;BME280;68714;48.586;7.772;2023-05-10T13:11:39;99588.22;;;20.19;45.49
79269;BME280;68714;48.586;7.772;2023-05-10T13:14:05;99574.88;;;20.28;44.81
79269;BME280;68714;48.586;7.772;2023-05-10T13:16:31;99585.78;;;20.37;44.91
79269;BME280;68714;48.586;7.772;2023-05-10T13:18:56;99580.22;;;20.49;44.57
79269;BME280;68714;48.586;7.772;2023-05-10T13:21:22;99577.44;;;20.61;44.34
79269;BME280;68714;48.586;7.772;2023-05-10T13:23:49;99584.09;;;20.97;44.42
79269;BME280;68714;48.586;7.772;2023-05-10T13:26:15;99590.25;;;21.29;43.61
79269;BME280;68714;48.586;7.772;2023-05-10T13:28:41;99585.88;;;21.28;43.86
79269;BME280;68714;48.586;7.772;2023-05-10T13:31:07;99584.16;;;21.17;43.62
79269;BME280;68714;48.586;7.772;2023-05-10T13:33:32;99597.09;;;21.02;43.33
79269;BME280;68714;48.586;7.772;2023-05-10T13:35:58;99586.47;;;20.60;43.38
79269;BME280;68714;48.586;7.772;2023-05-10T14:33:15;99640.69;;;16.34;51.28
79269;BME280;68714;48.586;7.772;2023-05-10T14:35:41;99623.09;;;16.05;52.27
79269;BME280;68714;48.586;7.772;2023-05-10T14:38:06;99624.41;;;15.85;52.75
79269;BME280;68714;48.586;7.772;2023-05-10T14:40:32;99623.19;;;15.77;53.09
79269;BME280;68714;48.586;7.772;2023-05-10T14:42:57;99614.09;;;15.66;53.36
79269;BME280;68714;48.586;7.772;2023-05-10T14:45:23;99610.69;;;15.64;53.45
79269;BME280;68714;48.586;7.772;2023-05-10T14:47:49;99620.28;;;15.67;53.59